sensor_id;sensor_type;location;lat;lon;timestamp;temperature;humidity
50838;DHT22;36815;50.884;20.584;2022-07-15T00:07:05;22;78
50838;DHT22;36815;50.884;20.584;2022-07-15T00:14:14;22;78
50838;DHT22;36815;50.884;20.584;2022-07-15T00:21:17;22;78
50838;DHT22;36815;50.884;20.584;2022-07-15T00:28:10;22;78
50838;DHT22;36815;50.884;20.584;2022-07-15T00:35:16;22;78
50838;DHT22;36815;50.884;20.584;2022-07-15T00:42:04;22;78
50838;DHT22;36815;50.884;20.584;2022-07-15T00:49:23;22;78
50838;DHT22;36815;50.884;20.584;2022-07-15T00:56:13;22;78
50838;DHT22;36815;50.884;20.584;2022-07-15T01:00:12;22;78
50838;DHT22;36815;50.884;20.584;2022-07-15T01:07:15;24;76
50838;DHT22;36815;50.884;20.584;2022-07-15T01:14:04;24;76
50838;DHT22;36815;50.884;20.584;2022-07-15T01:21:06;24;76
50838;DHT22;36815;50.884;20.584;2022-07-15T01:28:09;24;76
50838;DHT22;36815;50.884;20.584;2022-07-15T01:35:16;23;81
50838;DHT22;36815;50.884;20.584;2022-07-15T01:42:18;23;81
50838;DHT22;36815;50.884;20.584;2022-07-15T01:49:48;23;81
50838;DHT22;36815;50.884;20.584;2022-07-15T01:56:15;23;81
50838;DHT22;36815;50.884;20.584;2022-07-15T02:00:19;23;81
50838;DHT22;36815;50.884;20.584;2022-07-15T02:07:18;22;85
50838;DHT22;36815;50.884;20.584;2022-07-15T02:14:02;22;85
50838;DHT22;36815;50.884;20.584;2022-07-15T02:21:19;22;85
50838;DHT22;36815;50.884;20.584;2022-07-15T02:28:10;22;85
50838;DHT22;36815;50.884;20.584;2022-07-15T02:35:20;21;87
50838;DHT22;36815;50.884;20.584;2022-07-15T02:42:08;21;87
50838;DHT22;36815;50.884;20.584;2022-07-15T02:49:02;21;87
50838;DHT22;36815;50.884;20.584;2022-07-15T02:56:20;21;87
50838;DHT22;36815;50.884;20.584;2022-07-15T03:00:26;21;87
50838;DHT22;36815;50.884;20.584;2022-07-15T03:07:03;23;89
50838;DHT22;36815;50.884;20.584;2022-07-15T03:14:04;23;89
50838;DHT22;36815;50.884;20.584;2022-07-15T03:21:04;23;89
50838;DHT22;36815;50.884;20.584;2022-07-15T03:28:12;23;89
50838;DHT22;36815;50.884;20.584;2022-07-15T03:35:02;24;83
50838;DHT22;36815;50.884;20.584;2022-07-15T03:42:05;24;83
50838;DHT22;36815;50.884;20.584;2022-07-15T03:49:02;24;83
50838;DHT22;36815;50.884;20.584;2022-07-15T03:56:19;24;83
50838;DHT22;36815;50.884;20.584;2022-07-15T04:00:21;24;83
50838;DHT22;36815;50.884;20.584;2022-07-15T04:07:02;23;87
50838;DHT22;36815;50.884;20.584;2022-07-15T04:14:06;23;87
50838;DHT22;36815;50.884;20.584;2022-07-15T04:21:03;23;87
50838;DHT22;36815;50.884;20.584;2022-07-15T04:28:06;23;87
50838;DHT22;36815;50.884;20.584;2022-07-15T04:35:14;23;89
50838;DHT22;36815;50.884;20.584;2022-07-15T04:42:13;23;89
50838;DHT22;36815;50.884;20.584;2022-07-15T04:56:04;23;89
50838;DHT22;36815;50.884;20.584;2022-07-15T05:00:18;23;89
50838;DHT22;36815;50.884;20.584;2022-07-15T05:07:19;22;89
50838;DHT22;36815;50.884;20.584;2022-07-15T05:14:15;22;89
50838;DHT22;36815;50.884;20.584;2022-07-15T05:21:14;22;89
50838;DHT22;36815;50.884;20.584;2022-07-15T05:28:07;22;89
50838;DHT22;36815;50.884;20.584;2022-07-15T05:42:18;22;90
50838;DHT22;36815;50.884;20.584;2022-07-15T05:49:24;22;90
50838;DHT22;36815;50.884;20.584;2022-07-15T05:56:16;22;90
50838;DHT22;36815;50.884;20.584;2022-07-15T06:00:18;22;90
50838;DHT22;36815;50.884;20.584;2022-07-15T06:07:01;21;92
50838;DHT22;36815;50.884;20.584;2022-07-15T06:14:22;21;92
50838;DHT22;36815;50.884;20.584;2022-07-15T06:21:14;21;92
50838;DHT22;36815;50.884;20.584;2022-07-15T06:28:04;21;92
50838;DHT22;36815;50.884;20.584;2022-07-15T06:35:03;21;92
50838;DHT22;36815;50.884;20.584;2022-07-15T06:42:04;21;92
50838;DHT22;36815;50.884;20.584;2022-07-15T06:49:04;21;92
50838;DHT22;36815;50.884;20.584;2022-07-15T06:56:21;21;92
50838;DHT22;36815;50.884;20.584;2022-07-15T07:00:28;21;92
50838;DHT22;36815;50.884;20.584;2022-07-15T07:07:04;21;93
50838;DHT22;36815;50.884;20.584;2022-07-15T07:14:16;21;93
50838;DHT22;36815;50.884;20.584;2022-07-15T07:21:16;21;93
50838;DHT22;36815;50.884;20.584;2022-07-15T07:28:16;21;93
50838;DHT22;36815;50.884;20.584;2022-07-15T07:35:03;21;93
50838;DHT22;36815;50.884;20.584;2022-07-15T07:42:03;21;93
50838;DHT22;36815;50.884;20.584;2022-07-15T07:49:21;21;93
50838;DHT22;36815;50.884;20.584;2022-07-15T07:56:08;21;93
50838;DHT22;36815;50.884;20.584;2022-07-15T08:00:26;21;93
50838;DHT22;36815;50.884;20.584;2022-07-15T08:07:02;21;94
50838;DHT22;36815;50.884;20.584;2022-07-15T08:14:17;21;94
50838;DHT22;36815;50.884;20.584;2022-07-15T08:21:15;21;94
50838;DHT22;36815;50.884;20.584;2022-07-15T08:28:08;21;94
50838;DHT22;36815;50.884;20.584;2022-07-15T08:42:19;20;94
50838;DHT22;36815;50.884;20.584;2022-07-15T08:49:57;20;94
50838;DHT22;36815;50.884;20.584;2022-07-15T08:56:19;20;94
50838;DHT22;36815;50.884;20.584;2022-07-15T09:00:13;20;94
50838;DHT22;36815;50.884;20.584;2022-07-15T09:14:14;20;94
50838;DHT22;36815;50.884;20.584;2022-07-15T09:21:41;20;94
50838;DHT22;36815;50.884;20.584;2022-07-15T09:28:18;20;94
50838;DHT22;36815;50.884;20.584;2022-07-15T09:42:10;20;94
50838;DHT22;36815;50.884;20.584;2022-07-15T09:49:02;20;94
50838;DHT22;36815;50.884;20.584;2022-07-15T09:56:26;20;94
50838;DHT22;36815;50.884;20.584;2022-07-15T10:00:02;20;94
50838;DHT22;36815;50.884;20.584;2022-07-15T10:07:04;20;94
50838;DHT22;36815;50.884;20.584;2022-07-15T11:14:48;20;95
50838;DHT22;36815;50.884;20.584;2022-07-15T11:21:06;20;95
50838;DHT22;36815;50.884;20.584;2022-07-15T11:28:10;20;95
50838;DHT22;36815;50.884;20.584;2022-07-15T12:00:14;20;95
50838;DHT22;36815;50.884;20.584;2022-07-15T12:14:05;20;94
50838;DHT22;36815;50.884;20.584;2022-07-15T12:42:05;22;92
50838;DHT22;36815;50.884;20.584;2022-07-15T13:28:14;23;87
50838;DHT22;36815;50.884;20.584;2022-07-15T13:35:13;23;87
50838;DHT22;36815;50.884;20.584;2022-07-15T14:00:15;24;78
50838;DHT22;36815;50.884;20.584;2022-07-15T15:35:18;23;75
50838;DHT22;36815;50.884;20.584;2022-07-15T15:49:19;23;75
50838;DHT22;36815;50.884;20.584;2022-07-15T17:07:02;23;73
50838;DHT22;36815;50.884;20.584;2022-07-15T17:21:13;23;73
50838;DHT22;36815;50.884;20.584;2022-07-15T18:07:13;23;73
50838;DHT22;36815;50.884;20.584;2022-07-15T18:35:07;23;73
50838;DHT22;36815;50.884;20.584;2022-07-15T18:49:02;23;76
50838;DHT22;36815;50.884;20.584;2022-07-15T20:28:15;23;78
50838;DHT22;36815;50.884;20.584;2022-07-15T20:56:03;23;78
50838;DHT22;36815;50.884;20.584;2022-07-15T21:35:16;22;78
50838;DHT22;36815;50.884;20.584;2022-07-15T22:00:02;22;78
50838;DHT22;36815;50.884;20.584;2022-07-15T22:14:14;22;77
50838;DHT22;36815;50.884;20.584;2022-07-15T22:28:05;22;77
50838;DHT22;36815;50.884;20.584;2022-07-15T22:56:04;22.87;77
50838;DHT22;36815;50.884;20.584;2022-07-15T23:49:20;22.88;77
